Paramount Helsinki — 2CWB3 — position and weather

sailwx.info

Track history (hours):
 
Tides and Currents Weather Stations Pressure Air Temp Water Temp Dewpoint Dewpoint Depression Visibility Wind Speed Wind Dir Waves Ship Positions

Paramount Helsinki

Last reported at 2018-Jun-15 00:36 UTC. Time now 2018-Jun-21 02:36 UTC.
Position N 28°38' W 094°22'.

Length 250 m; draft 10.9 m.

Type: Tanker. MMSI: 235076275.

Date/timePositionNaut miles runAvg speedWind from/ knotsBaromVisibWave heightAir tempDewpointWater temp
2018-Jun-15 00:36N 28°38' W 094°22'3 6.6
2018-Jun-15 00:04N 28°40' W 094°19'1 0.2
2018-Jun-14 17:27N 28°40' W 094°18'6 0.4
2018-Jun-14 03:20N 28°35' W 094°20'4 1.5
2018-Jun-14 00:33N 28°32' W 094°16'1 9.9
2018-Jun-14 00:30N 28°33' W 094°16'811.1
2018-Jun-13 23:44N 28°37' W 094°07'312.7
2018-Jun-13 23:30N 28°38' W 094°04'1312.7
2018-Jun-13 22:26N 28°45' W 093°51'712.2
2018-Jun-13 21:54N 28°48' W 093°45'711.1
2018-Jun-13 21:18N 28°54' W 093°40'413.2
2018-Jun-13 21:00N 28°57' W 093°40'612.8
2018-Jun-13 20:30N 29°04' W 093°40'712.6
2018-Jun-13 19:58N 29°11' W 093°40'611.9
2018-Jun-13 19:30N 29°16' W 093°39'611.7
2018-Jun-13 19:00N 29°22' W 093°40'4 8.0
2018-Jun-13 18:30N 29°26' W 093°40'510.2
2018-Jun-13 18:00N 29°31' W 093°42'611.8
2018-Jun-13 17:30N 29°35' W 093°47'510.9
2018-Jun-13 17:00N 29°39' W 093°50'5 9.5
2018-Jun-13 16:31N 29°44' W 093°52'4 8.1
2018-Jun-13 16:01N 29°46' W 093°56'4 7.2
2018-Jun-13 15:30N 29°49' W 093°58'2 5.0
2018-Jun-13 15:00N 29°52' W 093°56'3 6.0
2018-Jun-13 14:30N 29°54' W 093°54'3 5.9
2018-Jun-13 14:00N 29°56' W 093°52'3 5.1
2018-Jun-13 13:30N 29°59' W 093°53'3 6.1
2018-Jun-13 13:00N 29°59' W 093°56'2 4.7
2018-Jun-13 12:30N 30°01' W 093°58'1 1.7
2018-Jun-13 12:00N 30°01' W 093°59'0 0.0
2018-Jun-13 11:30N 30°01' W 093°59'0 0.0
2018-Jun-13 11:00N 30°01' W 093°59'0 0.0
2018-Jun-13 10:30N 30°01' W 093°59'0 0.0
2018-Jun-13 10:00N 30°01' W 093°59'0 0.0
2018-Jun-13 09:30N 30°01' W 093°59'0 0.0
2018-Jun-13 09:00N 30°01' W 093°59'0 0.0
2018-Jun-13 08:30N 30°01' W 093°59'0 0.0
2018-Jun-13 07:57N 30°01' W 093°59'0 0.0
2018-Jun-13 07:27N 30°01' W 093°59'0 0.0
2018-Jun-13 07:00N 30°01' W 093°59'0 0.0
2018-Jun-13 06:30N 30°01' W 093°59'0 0.0
2018-Jun-13 05:57N 30°01' W 093°59'0 0.0
2018-Jun-13 05:30N 30°01' W 093°59'0 0.0
2018-Jun-13 04:57N 30°01' W 093°59'0 0.0
2018-Jun-13 04:30N 30°01' W 093°59'0 0.0
2018-Jun-13 04:00N 30°01' W 093°59'0 0.0
2018-Jun-13 03:30N 30°01' W 093°59'0 0.0
2018-Jun-13 03:00N 30°01' W 093°59'0 0.0
2018-Jun-13 02:30N 30°01' W 093°59'0 0.0
2018-Jun-13 02:00N 30°01' W 093°59'0 0.0
2018-Jun-13 01:27N 30°01' W 093°59'0 0.0
2018-Jun-13 01:00N 30°01' W 093°59'0 0.0
2018-Jun-13 00:30N 30°01' W 093°59'0 0.0
2018-Jun-13 00:00N 30°01' W 093°59'0 0.0
2018-Jun-12 23:30N 30°01' W 093°59'0 0.0
2018-Jun-12 23:00N 30°01' W 093°59'0 0.0
2018-Jun-12 22:30N 30°01' W 093°59'0 0.0
2018-Jun-12 22:00N 30°01' W 093°59'0 0.0
2018-Jun-12 21:30N 30°01' W 093°59'0 0.0
2018-Jun-12 21:00N 30°01' W 093°59'0 0.0
2018-Jun-12 20:30N 30°01' W 093°59'0 0.0
2018-Jun-12 19:57N 30°01' W 093°59'0 0.0
2018-Jun-12 19:30N 30°01' W 093°59'0 0.0
2018-Jun-12 19:00N 30°01' W 093°59'0 0.0
2018-Jun-12 18:30N 30°01' W 093°59'0 0.0
2018-Jun-12 18:00N 30°01' W 093°59'0 0.0
2018-Jun-12 17:30N 30°01' W 093°59'0 0.0
2018-Jun-12 17:00N 30°01' W 093°59'0 0.0
2018-Jun-12 16:30N 30°01' W 093°59'0 0.0
2018-Jun-12 16:00N 30°01' W 093°59'0 0.0
2018-Jun-12 15:30N 30°01' W 093°59'0 0.0
2018-Jun-12 15:00N 30°01' W 093°59'0 0.0
2018-Jun-12 14:30N 30°01' W 093°59'0 0.0
2018-Jun-12 14:00N 30°01' W 093°59'0 0.0
2018-Jun-12 13:30N 30°01' W 093°59'0 0.0
2018-Jun-12 13:00N 30°01' W 093°59'0 0.0
2018-Jun-12 12:30N 30°01' W 093°59'0 0.0
2018-Jun-12 12:00N 30°01' W 093°59'0 0.0
2018-Jun-12 11:30N 30°01' W 093°59'0 0.0
2018-Jun-12 11:00N 30°01' W 093°59'0 0.0
2018-Jun-12 10:30N 30°01' W 093°59'0 0.0
2018-Jun-12 10:00N 30°01' W 093°59'0 0.0
2018-Jun-12 09:30N 30°01' W 093°59'0 0.0
2018-Jun-12 09:00N 30°01' W 093°59'0 0.0
2018-Jun-12 08:30N 30°01' W 093°59'0 0.0
2018-Jun-12 08:00N 30°01' W 093°59'0 0.0
2018-Jun-12 07:30N 30°01' W 093°59'0 0.0
2018-Jun-12 07:00N 30°01' W 093°59'0 0.0
2018-Jun-12 06:30N 30°01' W 093°59'0 0.0
2018-Jun-12 06:00N 30°01' W 093°59'0 0.0
2018-Jun-12 05:30N 30°01' W 093°59'0 0.0
2018-Jun-12 05:00N 30°01' W 093°59'0 0.0
2018-Jun-12 04:30N 30°01' W 093°59'0 0.0
2018-Jun-12 04:00N 30°01' W 093°59'0 0.0
2018-Jun-12 03:30N 30°01' W 093°59'0 0.0
2018-Jun-12 03:00N 30°01' W 093°59'0 0.0
2018-Jun-12 02:30N 30°01' W 093°59'0 0.0
2018-Jun-12 02:00N 30°01' W 093°59'0 0.0
2018-Jun-12 01:30N 30°01' W 093°59'0 0.0
2018-Jun-12 01:00N 30°01' W 093°59'0 0.0
2018-Jun-12 00:30N 30°01' W 093°59'0 0.0
2018-Jun-12 00:00N 30°01' W 093°59'0 0.0
2018-Jun-11 23:30N 30°01' W 093°59'0 0.0
2018-Jun-11 23:00N 30°01' W 093°59'0 0.6
2018-Jun-11 22:30N 30°01' W 093°60'1 2.4
2018-Jun-11 22:00N 30°01' W 093°58'2 4.8
2018-Jun-11 21:30N 29°59' W 093°56'3 6.6
2018-Jun-11 21:00N 29°59' W 093°52'3 5.7
2018-Jun-11 20:30N 29°56' W 093°52'3 5.6
2018-Jun-11 20:01N 29°54' W 093°54'3 6.9
2018-Jun-11 19:30N 29°51' W 093°57'4 7.3
2018-Jun-11 19:00N 29°47' W 093°57'4 8.1
2018-Jun-11 18:31N 29°45' W 093°53'5 9.0
2018-Jun-11 18:00N 29°41' W 093°50'611.4
2018-Jun-11 17:30N 29°36' W 093°48'612.1
2018-Jun-11 17:01N 29°32' W 093°43'510.2
2018-Jun-11 16:29N 29°27' W 093°40'2 3.5
2018-Jun-11 16:01N 29°26' W 093°39'0 0.9
2018-Jun-11 15:30N 29°26' W 093°39'0 0.0
2018-Jun-11 14:59N 29°26' W 093°39'0 0.0
2018-Jun-11 14:08N 29°26' W 093°39'0 0.0
2018-Jun-11 13:50N 29°26' W 093°39'0 0.0
2018-Jun-11 13:17N 29°26' W 093°39'0 0.0
2018-Jun-11 12:47N 29°26' W 093°39'0 0.0
2018-Jun-11 12:29N 29°26' W 093°39'0 0.0
2018-Jun-11 11:59N 29°26' W 093°39'0 0.1
2018-Jun-11 11:26N 29°26' W 093°39'0 0.0
2018-Jun-11 10:59N 29°26' W 093°39'0 0.0
2018-Jun-11 10:23N 29°26' W 093°39'0 0.0
2018-Jun-11 09:59N 29°26' W 093°39'0 0.0
2018-Jun-11 09:14N 29°26' W 093°39'0 0.0
2018-Jun-11 08:47N 29°26' W 093°39'0 0.0
2018-Jun-11 08:26N 29°26' W 093°39'0 0.0
2018-Jun-11 07:59N 29°26' W 093°39'0 0.0
2018-Jun-11 07:29N 29°26' W 093°39'0 0.0
2018-Jun-11 06:59N 29°26' W 093°39'0 0.0
2018-Jun-11 06:29N 29°26' W 093°39'0 0.0
2018-Jun-11 05:56N 29°26' W 093°39'0 0.0
2018-Jun-11 05:29N 29°26' W 093°39'0 0.0
2018-Jun-11 04:56N 29°26' W 093°39'0 0.0
2018-Jun-11 04:26N 29°26' W 093°39'0 0.0
2018-Jun-11 03:56N 29°26' W 093°39'0 0.0
2018-Jun-11 03:23N 29°26' W 093°39'0 0.1
2018-Jun-11 02:59N 29°26' W 093°39'0 0.0
2018-Jun-11 02:26N 29°26' W 093°39'0 0.0
2018-Jun-11 01:59N 29°26' W 093°39'0 0.0
2018-Jun-11 01:26N 29°26' W 093°39'0 0.0
2018-Jun-11 00:32N 29°26' W 093°39'0 0.1
2018-Jun-11 00:20N 29°26' W 093°39'0 0.0
2018-Jun-10 23:47N 29°26' W 093°39'0 0.0
2018-Jun-10 22:56N 29°26' W 093°39'0 0.0
2018-Jun-10 22:23N 29°26' W 093°39'0 0.0
2018-Jun-10 18:56N 29°26' W 093°39'0 0.0
2018-Jun-10 18:17N 29°26' W 093°39'0 0.0
2018-Jun-10 17:59N 29°26' W 093°39'0 0.2
2018-Jun-10 17:30N 29°26' W 093°38'2 3.6
2018-Jun-10 17:00N 29°27' W 093°40'510.6
2018-Jun-10 16:30N 29°31' W 093°43'612.7
2018-Jun-10 16:01N 29°36' W 093°48'612.2
2018-Jun-10 15:30N 29°42' W 093°50'5 9.3
2018-Jun-10 15:00N 29°45' W 093°54'4 8.0
2018-Jun-10 14:30N 29°48' W 093°57'7 6.6
2018-Jun-10 13:30N 29°54' W 093°54'3 6.6
2018-Jun-10 13:00N 29°57' W 093°52'3 5.3
2018-Jun-10 12:30N 29°59' W 093°53'3 6.5
2018-Jun-10 12:00N 29°60' W 093°57'1 1.4
2018-Jun-10 11:30N 29°59' W 093°56'0 0.0
2018-Jun-10 11:00N 29°59' W 093°56'0 0.0
2018-Jun-10 10:29N 29°60' W 093°56'0 0.0
2018-Jun-10 09:59N 29°60' W 093°56'0 0.0
2018-Jun-10 09:29N 29°59' W 093°56'0 0.0
2018-Jun-10 08:59N 29°60' W 093°56'0 0.0
2018-Jun-10 08:29N 29°59' W 093°56'0 0.0
2018-Jun-10 07:59N 29°59' W 093°56'0 0.0
2018-Jun-10 07:29N 29°60' W 093°56'0 0.0
2018-Jun-10 06:59N 29°59' W 093°56'0 0.0
2018-Jun-10 06:29N 29°60' W 093°56'0 0.0
2018-Jun-10 05:59N 29°59' W 093°56'0 0.0
2018-Jun-10 05:29N 29°59' W 093°56'0 0.0
2018-Jun-10 04:59N 29°60' W 093°56'0 0.0
2018-Jun-10 04:29N 29°60' W 093°56'0 0.0
2018-Jun-10 03:59N 29°59' W 093°56'0 0.0
2018-Jun-10 03:29N 29°60' W 093°56'0 0.0
2018-Jun-10 02:59N 29°59' W 093°56'0 0.0
2018-Jun-10 02:29N 29°59' W 093°56'0 0.0
2018-Jun-10 01:59N 29°59' W 093°56'0 0.0
2018-Jun-10 01:29N 29°60' W 093°56'0 0.0
2018-Jun-10 00:56N 29°60' W 093°56'0 0.0
2018-Jun-10 00:29N 29°60' W 093°56'0 0.0
2018-Jun-09 23:59N 29°59' W 093°56'0 0.0
2018-Jun-09 23:29N 29°59' W 093°56'0 0.0
2018-Jun-09 22:59N 29°59' W 093°56'0 0.0
2018-Jun-09 22:26N 29°60' W 093°56'0 0.0
2018-Jun-09 21:59N 29°60' W 093°56'0 0.0
2018-Jun-09 21:29N 29°60' W 093°56'0 0.0
2018-Jun-09 20:59N 29°59' W 093°56'0 0.0
2018-Jun-09 20:29N 29°59' W 093°56'0 0.0
2018-Jun-09 19:59N 29°59' W 093°56'0 0.0
2018-Jun-09 19:29N 29°59' W 093°56'0 0.0
2018-Jun-09 18:59N 29°60' W 093°56'0 0.0
2018-Jun-09 18:29N 29°60' W 093°56'0 0.0
2018-Jun-09 17:59N 29°60' W 093°56'0 0.0
2018-Jun-09 17:29N 29°59' W 093°56'0 0.0
2018-Jun-09 16:59N 29°59' W 093°56'0 0.0
2018-Jun-09 16:29N 29°60' W 093°56'0 0.0
2018-Jun-09 15:59N 29°60' W 093°56'0 0.0
2018-Jun-09 15:29N 29°60' W 093°56'0 0.0
2018-Jun-09 14:29N 29°59' W 093°56'0 0.0
2018-Jun-09 13:59N 29°59' W 093°56'0 0.0
2018-Jun-09 13:29N 29°60' W 093°56'0 0.0
2018-Jun-09 12:59N 29°60' W 093°56'0 0.0
2018-Jun-09 12:29N 29°60' W 093°56'0 0.0
2018-Jun-09 11:59N 29°59' W 093°56'0 0.0
2018-Jun-09 11:29N 29°59' W 093°56'0 0.0
2018-Jun-09 10:59N 29°59' W 093°56'0 0.0
2018-Jun-09 10:29N 29°60' W 093°56'0 0.0
2018-Jun-09 09:59N 29°60' W 093°56'0 0.0
2018-Jun-09 09:29N 29°60' W 093°56'0 0.0
2018-Jun-09 08:59N 29°59' W 093°56'0 0.0
2018-Jun-09 08:29N 29°60' W 093°56'0 0.0
2018-Jun-09 07:59N 29°59' W 093°56'0 0.0
2018-Jun-09 07:29N 29°60' W 093°56'0 0.0
2018-Jun-09 06:59N 29°60' W 093°56'0 0.0
2018-Jun-09 06:29N 29°60' W 093°56'0 0.0
2018-Jun-09 05:59N 29°60' W 093°56'0 0.0
2018-Jun-09 05:29N 29°59' W 093°56'0 0.0
2018-Jun-09 04:59N 29°60' W 093°56'0 0.0
2018-Jun-09 04:29N 29°59' W 093°56'0 0.0
2018-Jun-09 03:59N 29°60' W 093°56'0 0.0
2018-Jun-09 03:29N 29°60' W 093°56'0 0.0
2018-Jun-09 02:59N 29°59' W 093°56'0 0.0
2018-Jun-09 02:29N 29°59' W 093°56'0 0.0
2018-Jun-09 01:59N 29°59' W 093°56'0 0.0
2018-Jun-09 01:29N 29°60' W 093°56'0 0.0
2018-Jun-09 00:59N 29°60' W 093°56'0 0.0
2018-Jun-09 00:26N 29°60' W 093°56'0 0.0
2018-Jun-08 23:59N 29°59' W 093°56'0 0.0
2018-Jun-08 23:23N 29°59' W 093°56'0 0.0
2018-Jun-08 22:59N 29°59' W 093°56'0 0.0
2018-Jun-08 22:29N 29°60' W 093°56'0 0.1
2018-Jun-08 21:59N 29°60' W 093°56'2 3.6
2018-Jun-08 21:30N 29°59' W 093°54'3 5.3
2018-Jun-08 21:00N 29°58' W 093°51'3 5.3
2018-Jun-08 20:30N 29°56' W 093°52'3 5.5
2018-Jun-08 20:00N 29°54' W 093°55'3 5.4
2018-Jun-08 19:30N 29°51' W 093°56'3 5.8
2018-Jun-08 19:00N 29°49' W 093°57'4 7.5
2018-Jun-08 18:30N 29°46' W 093°55'4 8.1
2018-Jun-08 18:00N 29°43' W 093°51'5 9.5
2018-Jun-08 17:30N 29°38' W 093°49'611.2
2018-Jun-08 17:00N 29°34' W 093°46'611.6
2018-Jun-08 16:30N 29°30' W 093°41'5 9.1
2018-Jun-08 16:00N 29°25' W 093°40'2 4.6
2018-Jun-08 15:30N 29°23' W 093°38'1 2.5
2018-Jun-08 14:59N 29°24' W 093°37'0 0.1
2018-Jun-08 14:23N 29°24' W 093°37'0 0.0
2018-Jun-08 13:47N 29°24' W 093°37'0 0.0
2018-Jun-08 13:29N 29°24' W 093°37'0 0.0
2018-Jun-08 12:59N 29°24' W 093°37'0 0.0
2018-Jun-08 12:29N 29°24' W 093°37'0 0.0
2018-Jun-08 11:59N 29°24' W 093°37'0 0.0
2018-Jun-08 11:23N 29°24' W 093°37'0 0.0
2018-Jun-08 10:50N 29°24' W 093°37'0 0.0
2018-Jun-08 10:29N 29°24' W 093°37'0 0.0
2018-Jun-08 09:53N 29°24' W 093°37'0 0.0
2018-Jun-08 09:26N 29°24' W 093°37'0 0.0
2018-Jun-08 08:59N 29°24' W 093°37'0 0.0
2018-Jun-08 08:29N 29°24' W 093°37'0 0.0
2018-Jun-08 07:56N 29°24' W 093°37'0 0.0
2018-Jun-08 07:29N 29°24' W 093°37'0 0.0
2018-Jun-08 06:59N 29°24' W 093°37'0 0.0
2018-Jun-08 06:29N 29°24' W 093°37'0 0.0
2018-Jun-08 05:59N 29°24' W 093°37'0 0.0
2018-Jun-08 05:26N 29°24' W 093°37'0 0.0
2018-Jun-08 04:50N 29°24' W 093°37'0 0.1
2018-Jun-08 04:29N 29°24' W 093°37'0 0.0
2018-Jun-08 03:59N 29°24' W 093°37'0 0.0
2018-Jun-08 03:29N 29°24' W 093°37'0 0.0
2018-Jun-08 02:56N 29°24' W 093°37'0 0.0
2018-Jun-08 02:29N 29°24' W 093°37'0 0.0
2018-Jun-08 01:59N 29°24' W 093°37'0 0.0
2018-Jun-08 01:29N 29°24' W 093°37'0 0.0
2018-Jun-08 00:56N 29°24' W 093°37'0 0.0
2018-Jun-08 00:26N 29°24' W 093°37'0 0.1
2018-Jun-07 23:53N 29°24' W 093°37'0 0.0
2018-Jun-07 23:29N 29°24' W 093°37'0 0.1
2018-Jun-07 22:47N 29°24' W 093°37'0 0.2
2018-Jun-07 22:30N 29°24' W 093°37'1 2.7
2018-Jun-07 22:00N 29°23' W 093°38'3 5.4
2018-Jun-07 21:28N 29°21' W 093°40'510.6
2018-Jun-07 21:00N 29°16' W 093°39'912.1
2018-Jun-07 20:15N 29°07' W 093°40'412.7
2018-Jun-07 19:56N 29°03' W 093°40'612.8
2018-Jun-07 19:30N 28°57' W 093°40'27 8.3
2018-Jun-07 16:14N 28°43' W 094°06'1 1.4
2018-Jun-07 15:16N 28°43' W 094°05'0 0.1
2018-Jun-07 11:33N 28°43' W 094°04'0 0.0
2018-Jun-07 11:18N 28°43' W 094°04'0 0.0
2018-Jun-07 10:51N 28°43' W 094°04'0 0.0
2018-Jun-07 10:28N 28°43' W 094°04'0 0.0
2018-Jun-07 10:00N 28°43' W 094°04'0 0.0
2018-Jun-07 09:30N 28°43' W 094°04'0 0.0
2018-Jun-06 22:10N 28°43' W 094°04'0 0.3
2018-Jun-06 21:55N 28°43' W 094°04'0 0.6
2018-Jun-06 21:28N 28°42' W 094°04'4 4.9
2018-Jun-06 20:38N 28°39' W 094°02'5 5.8
2018-Jun-06 19:49N 28°35' W 093°59'6 2.5
2018-Jun-06 17:36N 28°38' W 093°53'0 0.0
2018-Jun-06 12:40N 28°38' W 093°53'0 0.0
2018-Jun-06 12:13N 28°38' W 093°53'0 0.0
2018-Jun-06 11:58N 28°38' W 093°53'0 0.1
2018-Jun-06 08:55N 28°38' W 093°54'0 0.0
2018-Jun-06 07:46N 28°38' W 093°54'0 0.0
2018-Jun-06 07:19N 28°38' W 093°54'0 0.2
2018-Jun-06 05:10N 28°38' W 093°53'1 4.3
2018-Jun-06 05:00N 28°37' W 093°53'3 6.0
2018-Jun-06 04:30N 28°39' W 093°51'12 8.7
2018-Jun-06 03:10N 28°49' W 093°43'212.9
2018-Jun-06 02:59N 28°50' W 093°41'4011.7
2018-Jun-05 23:36N 29°21' W 093°13'113.2
2018-Jun-05 23:30N 29°22' W 093°13'712.8
2018-Jun-05 22:56N 29°30' W 093°13'4 9.0
2018-Jun-05 22:30N 29°33' W 093°15'713.0
2018-Jun-05 22:00N 29°39' W 093°19'612.7
2018-Jun-05 21:30N 29°45' W 093°20'510.5
2018-Jun-05 21:00N 29°50' W 093°21'4 8.8
2018-Jun-05 20:30N 29°54' W 093°21'5 8.9
2018-Jun-05 20:00N 29°59' W 093°20'3 6.1
2018-Jun-05 19:30N 30°02' W 093°20'4 7.4
2018-Jun-05 19:00N 30°06' W 093°19'3 6.8
2018-Jun-05 18:30N 30°09' W 093°20'2 4.4
2018-Jun-05 18:00N 30°11' W 093°19'0 0.6
2018-Jun-05 17:29N 30°11' W 093°18'0 0.0
2018-Jun-05 16:59N 30°11' W 093°18'0 0.0
2018-Jun-05 16:29N 30°11' W 093°18'0 0.0
2018-Jun-05 15:59N 30°11' W 093°18'0 0.0
2018-Jun-05 15:29N 30°11' W 093°18'0 0.0
2018-Jun-05 14:59N 30°11' W 093°18'0 0.0
2018-Jun-05 14:29N 30°11' W 093°18'0 0.0
2018-Jun-05 13:56N 30°11' W 093°18'0 0.0
2018-Jun-05 13:29N 30°11' W 093°18'0 0.0
2018-Jun-05 12:59N 30°11' W 093°18'0 0.0
2018-Jun-05 12:29N 30°11' W 093°18'0 0.0
2018-Jun-05 11:56N 30°11' W 093°18'0 0.0
2018-Jun-05 11:29N 30°11' W 093°18'0 0.0
2018-Jun-05 10:59N 30°11' W 093°18'0 0.0
2018-Jun-05 10:29N 30°11' W 093°18'0 0.0
2018-Jun-05 09:59N 30°11' W 093°18'0 0.0
2018-Jun-05 09:29N 30°11' W 093°18'0 0.0
2018-Jun-05 08:59N 30°11' W 093°18'0 0.0
2018-Jun-05 08:29N 30°11' W 093°18'0 0.0
2018-Jun-05 07:59N 30°11' W 093°18'0 0.0
2018-Jun-05 07:29N 30°11' W 093°18'0 0.0
2018-Jun-05 06:59N 30°11' W 093°18'0 0.0
2018-Jun-05 06:23N 30°11' W 093°18'0 0.0
2018-Jun-05 05:59N 30°11' W 093°18'0 0.0
2018-Jun-05 05:29N 30°11' W 093°18'0 0.0
2018-Jun-05 04:59N 30°11' W 093°18'0 0.0
2018-Jun-05 04:29N 30°11' W 093°18'0 0.0
2018-Jun-05 03:59N 30°11' W 093°18'0 0.0
2018-Jun-05 03:29N 30°11' W 093°18'0 0.0
2018-Jun-05 02:56N 30°11' W 093°18'0 0.0
2018-Jun-05 02:29N 30°11' W 093°18'0 0.0
2018-Jun-05 01:59N 30°11' W 093°18'0 0.0
2018-Jun-05 01:29N 30°11' W 093°18'0 0.0
2018-Jun-05 00:59N 30°11' W 093°18'  
Track history (hours):
 
Tides and Currents Weather Stations Pressure Air Temp Water Temp Dewpoint Dewpoint Depression Visibility Wind Speed Wind Dir Waves Ship Positions

Paramount Helsinki

Last reported at 2018-Jun-15 00:36 UTC. Time now 2018-Jun-21 02:36 UTC.
Position N 28°38' W 094°22'.

Length 250 m; draft 10.9 m.

Type: Tanker. MMSI: 235076275.

Date/timePositionNaut miles runAvg speedWind from/ knotsBaromVisibWave heightAir tempDewpointWater temp
2018-Jun-15 00:36N 28°38' W 094°22'3 6.6
2018-Jun-15 00:04N 28°40' W 094°19'1 0.2
2018-Jun-14 17:27N 28°40' W 094°18'6 0.4
2018-Jun-14 03:20N 28°35' W 094°20'4 1.5
2018-Jun-14 00:33N 28°32' W 094°16'1 9.9
2018-Jun-14 00:30N 28°33' W 094°16'811.1
2018-Jun-13 23:44N 28°37' W 094°07'312.7
2018-Jun-13 23:30N 28°38' W 094°04'1312.7
2018-Jun-13 22:26N 28°45' W 093°51'712.2
2018-Jun-13 21:54N 28°48' W 093°45'711.1
2018-Jun-13 21:18N 28°54' W 093°40'413.2
2018-Jun-13 21:00N 28°57' W 093°40'612.8
2018-Jun-13 20:30N 29°04' W 093°40'712.6
2018-Jun-13 19:58N 29°11' W 093°40'611.9
2018-Jun-13 19:30N 29°16' W 093°39'611.7
2018-Jun-13 19:00N 29°22' W 093°40'4 8.0
2018-Jun-13 18:30N 29°26' W 093°40'510.2
2018-Jun-13 18:00N 29°31' W 093°42'611.8
2018-Jun-13 17:30N 29°35' W 093°47'510.9
2018-Jun-13 17:00N 29°39' W 093°50'5 9.5
2018-Jun-13 16:31N 29°44' W 093°52'4 8.1
2018-Jun-13 16:01N 29°46' W 093°56'4 7.2
2018-Jun-13 15:30N 29°49' W 093°58'2 5.0
2018-Jun-13 15:00N 29°52' W 093°56'3 6.0
2018-Jun-13 14:30N 29°54' W 093°54'3 5.9
2018-Jun-13 14:00N 29°56' W 093°52'3 5.1
2018-Jun-13 13:30N 29°59' W 093°53'3 6.1
2018-Jun-13 13:00N 29°59' W 093°56'2 4.7
2018-Jun-13 12:30N 30°01' W 093°58'1 1.7
2018-Jun-13 12:00N 30°01' W 093°59'0 0.0
2018-Jun-13 11:30N 30°01' W 093°59'0 0.0
2018-Jun-13 11:00N 30°01' W 093°59'0 0.0
2018-Jun-13 10:30N 30°01' W 093°59'0 0.0
2018-Jun-13 10:00N 30°01' W 093°59'0 0.0
2018-Jun-13 09:30N 30°01' W 093°59'0 0.0
2018-Jun-13 09:00N 30°01' W 093°59'0 0.0
2018-Jun-13 08:30N 30°01' W 093°59'0 0.0
2018-Jun-13 07:57N 30°01' W 093°59'0 0.0
2018-Jun-13 07:27N 30°01' W 093°59'0 0.0
2018-Jun-13 07:00N 30°01' W 093°59'0 0.0
2018-Jun-13 06:30N 30°01' W 093°59'0 0.0
2018-Jun-13 05:57N 30°01' W 093°59'0 0.0
2018-Jun-13 05:30N 30°01' W 093°59'0 0.0
2018-Jun-13 04:57N 30°01' W 093°59'0 0.0
2018-Jun-13 04:30N 30°01' W 093°59'0 0.0
2018-Jun-13 04:00N 30°01' W 093°59'0 0.0
2018-Jun-13 03:30N 30°01' W 093°59'0 0.0
2018-Jun-13 03:00N 30°01' W 093°59'0 0.0
2018-Jun-13 02:30N 30°01' W 093°59'0 0.0
2018-Jun-13 02:00N 30°01' W 093°59'0 0.0
2018-Jun-13 01:27N 30°01' W 093°59'0 0.0
2018-Jun-13 01:00N 30°01' W 093°59'0 0.0
2018-Jun-13 00:30N 30°01' W 093°59'0 0.0
2018-Jun-13 00:00N 30°01' W 093°59'0 0.0
2018-Jun-12 23:30N 30°01' W 093°59'0 0.0
2018-Jun-12 23:00N 30°01' W 093°59'0 0.0
2018-Jun-12 22:30N 30°01' W 093°59'0 0.0
2018-Jun-12 22:00N 30°01' W 093°59'0 0.0
2018-Jun-12 21:30N 30°01' W 093°59'0 0.0
2018-Jun-12 21:00N 30°01' W 093°59'0 0.0
2018-Jun-12 20:30N 30°01' W 093°59'0 0.0
2018-Jun-12 19:57N 30°01' W 093°59'0 0.0
2018-Jun-12 19:30N 30°01' W 093°59'0 0.0
2018-Jun-12 19:00N 30°01' W 093°59'0 0.0
2018-Jun-12 18:30N 30°01' W 093°59'0 0.0
2018-Jun-12 18:00N 30°01' W 093°59'0 0.0
2018-Jun-12 17:30N 30°01' W 093°59'0 0.0
2018-Jun-12 17:00N 30°01' W 093°59'0 0.0
2018-Jun-12 16:30N 30°01' W 093°59'0 0.0
2018-Jun-12 16:00N 30°01' W 093°59'0 0.0
2018-Jun-12 15:30N 30°01' W 093°59'0 0.0
2018-Jun-12 15:00N 30°01' W 093°59'0 0.0
2018-Jun-12 14:30N 30°01' W 093°59'0 0.0
2018-Jun-12 14:00N 30°01' W 093°59'0 0.0
2018-Jun-12 13:30N 30°01' W 093°59'0 0.0
2018-Jun-12 13:00N 30°01' W 093°59'0 0.0
2018-Jun-12 12:30N 30°01' W 093°59'0 0.0
2018-Jun-12 12:00N 30°01' W 093°59'0 0.0
2018-Jun-12 11:30N 30°01' W 093°59'0 0.0
2018-Jun-12 11:00N 30°01' W 093°59'0 0.0
2018-Jun-12 10:30N 30°01' W 093°59'0 0.0
2018-Jun-12 10:00N 30°01' W 093°59'0 0.0
2018-Jun-12 09:30N 30°01' W 093°59'0 0.0
2018-Jun-12 09:00N 30°01' W 093°59'0 0.0
2018-Jun-12 08:30N 30°01' W 093°59'0 0.0
2018-Jun-12 08:00N 30°01' W 093°59'0 0.0
2018-Jun-12 07:30N 30°01' W 093°59'0 0.0
2018-Jun-12 07:00N 30°01' W 093°59'0 0.0
2018-Jun-12 06:30N 30°01' W 093°59'0 0.0
2018-Jun-12 06:00N 30°01' W 093°59'0 0.0
2018-Jun-12 05:30N 30°01' W 093°59'0 0.0
2018-Jun-12 05:00N 30°01' W 093°59'0 0.0
2018-Jun-12 04:30N 30°01' W 093°59'0 0.0
2018-Jun-12 04:00N 30°01' W 093°59'0 0.0
2018-Jun-12 03:30N 30°01' W 093°59'0 0.0
2018-Jun-12 03:00N 30°01' W 093°59'0 0.0
2018-Jun-12 02:30N 30°01' W 093°59'0 0.0
2018-Jun-12 02:00N 30°01' W 093°59'0 0.0
2018-Jun-12 01:30N 30°01' W 093°59'0 0.0
2018-Jun-12 01:00N 30°01' W 093°59'0 0.0
2018-Jun-12 00:30N 30°01' W 093°59'0 0.0
2018-Jun-12 00:00N 30°01' W 093°59'0 0.0
2018-Jun-11 23:30N 30°01' W 093°59'0 0.0
2018-Jun-11 23:00N 30°01' W 093°59'0 0.6
2018-Jun-11 22:30N 30°01' W 093°60'1 2.4
2018-Jun-11 22:00N 30°01' W 093°58'2 4.8
2018-Jun-11 21:30N 29°59' W 093°56'3 6.6
2018-Jun-11 21:00N 29°59' W 093°52'3 5.7
2018-Jun-11 20:30N 29°56' W 093°52'3 5.6
2018-Jun-11 20:01N 29°54' W 093°54'3 6.9
2018-Jun-11 19:30N 29°51' W 093°57'4 7.3
2018-Jun-11 19:00N 29°47' W 093°57'4 8.1
2018-Jun-11 18:31N 29°45' W 093°53'5 9.0
2018-Jun-11 18:00N 29°41' W 093°50'611.4
2018-Jun-11 17:30N 29°36' W 093°48'612.1
2018-Jun-11 17:01N 29°32' W 093°43'510.2
2018-Jun-11 16:29N 29°27' W 093°40'2 3.5
2018-Jun-11 16:01N 29°26' W 093°39'0 0.9
2018-Jun-11 15:30N 29°26' W 093°39'0 0.0
2018-Jun-11 14:59N 29°26' W 093°39'0 0.0
2018-Jun-11 14:08N 29°26' W 093°39'0 0.0
2018-Jun-11 13:50N 29°26' W 093°39'0 0.0
2018-Jun-11 13:17N 29°26' W 093°39'0 0.0
2018-Jun-11 12:47N 29°26' W 093°39'0 0.0
2018-Jun-11 12:29N 29°26' W 093°39'0 0.0
2018-Jun-11 11:59N 29°26' W 093°39'0 0.1
2018-Jun-11 11:26N 29°26' W 093°39'0 0.0
2018-Jun-11 10:59N 29°26' W 093°39'0 0.0
2018-Jun-11 10:23N 29°26' W 093°39'0 0.0
2018-Jun-11 09:59N 29°26' W 093°39'0 0.0
2018-Jun-11 09:14N 29°26' W 093°39'0 0.0
2018-Jun-11 08:47N 29°26' W 093°39'0 0.0
2018-Jun-11 08:26N 29°26' W 093°39'0 0.0
2018-Jun-11 07:59N 29°26' W 093°39'0 0.0
2018-Jun-11 07:29N 29°26' W 093°39'0 0.0
2018-Jun-11 06:59N 29°26' W 093°39'0 0.0
2018-Jun-11 06:29N 29°26' W 093°39'0 0.0
2018-Jun-11 05:56N 29°26' W 093°39'0 0.0
2018-Jun-11 05:29N 29°26' W 093°39'0 0.0
2018-Jun-11 04:56N 29°26' W 093°39'0 0.0
2018-Jun-11 04:26N 29°26' W 093°39'0 0.0
2018-Jun-11 03:56N 29°26' W 093°39'0 0.0
2018-Jun-11 03:23N 29°26' W 093°39'0 0.1
2018-Jun-11 02:59N 29°26' W 093°39'0 0.0
2018-Jun-11 02:26N 29°26' W 093°39'0 0.0
2018-Jun-11 01:59N 29°26' W 093°39'0 0.0
2018-Jun-11 01:26N 29°26' W 093°39'0 0.0
2018-Jun-11 00:32N 29°26' W 093°39'0 0.1
2018-Jun-11 00:20N 29°26' W 093°39'0 0.0
2018-Jun-10 23:47N 29°26' W 093°39'0 0.0
2018-Jun-10 22:56N 29°26' W 093°39'0 0.0
2018-Jun-10 22:23N 29°26' W 093°39'0 0.0
2018-Jun-10 18:56N 29°26' W 093°39'0 0.0
2018-Jun-10 18:17N 29°26' W 093°39'0 0.0
2018-Jun-10 17:59N 29°26' W 093°39'0 0.2
2018-Jun-10 17:30N 29°26' W 093°38'2 3.6
2018-Jun-10 17:00N 29°27' W 093°40'510.6
2018-Jun-10 16:30N 29°31' W 093°43'612.7
2018-Jun-10 16:01N 29°36' W 093°48'612.2
2018-Jun-10 15:30N 29°42' W 093°50'5 9.3
2018-Jun-10 15:00N 29°45' W 093°54'4 8.0
2018-Jun-10 14:30N 29°48' W 093°57'7 6.6
2018-Jun-10 13:30N 29°54' W 093°54'3 6.6
2018-Jun-10 13:00N 29°57' W 093°52'3 5.3
2018-Jun-10 12:30N 29°59' W 093°53'3 6.5
2018-Jun-10 12:00N 29°60' W 093°57'1 1.4
2018-Jun-10 11:30N 29°59' W 093°56'0 0.0
2018-Jun-10 11:00N 29°59' W 093°56'0 0.0
2018-Jun-10 10:29N 29°60' W 093°56'0 0.0
2018-Jun-10 09:59N 29°60' W 093°56'0 0.0
2018-Jun-10 09:29N 29°59' W 093°56'0 0.0
2018-Jun-10 08:59N 29°60' W 093°56'0 0.0
2018-Jun-10 08:29N 29°59' W 093°56'0 0.0
2018-Jun-10 07:59N 29°59' W 093°56'0 0.0
2018-Jun-10 07:29N 29°60' W 093°56'0 0.0
2018-Jun-10 06:59N 29°59' W 093°56'0 0.0
2018-Jun-10 06:29N 29°60' W 093°56'0 0.0
2018-Jun-10 05:59N 29°59' W 093°56'0 0.0
2018-Jun-10 05:29N 29°59' W 093°56'0 0.0
2018-Jun-10 04:59N 29°60' W 093°56'0 0.0
2018-Jun-10 04:29N 29°60' W 093°56'0 0.0
2018-Jun-10 03:59N 29°59' W 093°56'0 0.0
2018-Jun-10 03:29N 29°60' W 093°56'0 0.0
2018-Jun-10 02:59N 29°59' W 093°56'0 0.0
2018-Jun-10 02:29N 29°59' W 093°56'0 0.0
2018-Jun-10 01:59N 29°59' W 093°56'0 0.0
2018-Jun-10 01:29N 29°60' W 093°56'0 0.0
2018-Jun-10 00:56N 29°60' W 093°56'0 0.0
2018-Jun-10 00:29N 29°60' W 093°56'0 0.0
2018-Jun-09 23:59N 29°59' W 093°56'0 0.0
2018-Jun-09 23:29N 29°59' W 093°56'0 0.0
2018-Jun-09 22:59N 29°59' W 093°56'0 0.0
2018-Jun-09 22:26N 29°60' W 093°56'0 0.0
2018-Jun-09 21:59N 29°60' W 093°56'0 0.0
2018-Jun-09 21:29N 29°60' W 093°56'0 0.0
2018-Jun-09 20:59N 29°59' W 093°56'0 0.0
2018-Jun-09 20:29N 29°59' W 093°56'0 0.0
2018-Jun-09 19:59N 29°59' W 093°56'0 0.0
2018-Jun-09 19:29N 29°59' W 093°56'0 0.0
2018-Jun-09 18:59N 29°60' W 093°56'0 0.0
2018-Jun-09 18:29N 29°60' W 093°56'0 0.0
2018-Jun-09 17:59N 29°60' W 093°56'0 0.0
2018-Jun-09 17:29N 29°59' W 093°56'0 0.0
2018-Jun-09 16:59N 29°59' W 093°56'0 0.0
2018-Jun-09 16:29N 29°60' W 093°56'0 0.0
2018-Jun-09 15:59N 29°60' W 093°56'0 0.0
2018-Jun-09 15:29N 29°60' W 093°56'0 0.0
2018-Jun-09 14:29N 29°59' W 093°56'0 0.0
2018-Jun-09 13:59N 29°59' W 093°56'0 0.0
2018-Jun-09 13:29N 29°60' W 093°56'0 0.0
2018-Jun-09 12:59N 29°60' W 093°56'0 0.0
2018-Jun-09 12:29N 29°60' W 093°56'0 0.0
2018-Jun-09 11:59N 29°59' W 093°56'0 0.0
2018-Jun-09 11:29N 29°59' W 093°56'0 0.0
2018-Jun-09 10:59N 29°59' W 093°56'0 0.0
2018-Jun-09 10:29N 29°60' W 093°56'0 0.0
2018-Jun-09 09:59N 29°60' W 093°56'0 0.0
2018-Jun-09 09:29N 29°60' W 093°56'0 0.0
2018-Jun-09 08:59N 29°59' W 093°56'0 0.0
2018-Jun-09 08:29N 29°60' W 093°56'0 0.0
2018-Jun-09 07:59N 29°59' W 093°56'0 0.0
2018-Jun-09 07:29N 29°60' W 093°56'0 0.0
2018-Jun-09 06:59N 29°60' W 093°56'0 0.0
2018-Jun-09 06:29N 29°60' W 093°56'0 0.0
2018-Jun-09 05:59N 29°60' W 093°56'0 0.0
2018-Jun-09 05:29N 29°59' W 093°56'0 0.0
2018-Jun-09 04:59N 29°60' W 093°56'0 0.0
2018-Jun-09 04:29N 29°59' W 093°56'0 0.0
2018-Jun-09 03:59N 29°60' W 093°56'0 0.0
2018-Jun-09 03:29N 29°60' W 093°56'0 0.0
2018-Jun-09 02:59N 29°59' W 093°56'0 0.0
2018-Jun-09 02:29N 29°59' W 093°56'0 0.0
2018-Jun-09 01:59N 29°59' W 093°56'0 0.0
2018-Jun-09 01:29N 29°60' W 093°56'0 0.0
2018-Jun-09 00:59N 29°60' W 093°56'0 0.0
2018-Jun-09 00:26N 29°60' W 093°56'0 0.0
2018-Jun-08 23:59N 29°59' W 093°56'0 0.0
2018-Jun-08 23:23N 29°59' W 093°56'0 0.0
2018-Jun-08 22:59N 29°59' W 093°56'0 0.0
2018-Jun-08 22:29N 29°60' W 093°56'0 0.1
2018-Jun-08 21:59N 29°60' W 093°56'2 3.6
2018-Jun-08 21:30N 29°59' W 093°54'3 5.3
2018-Jun-08 21:00N 29°58' W 093°51'3 5.3
2018-Jun-08 20:30N 29°56' W 093°52'3 5.5
2018-Jun-08 20:00N 29°54' W 093°55'3 5.4
2018-Jun-08 19:30N 29°51' W 093°56'3 5.8
2018-Jun-08 19:00N 29°49' W 093°57'4 7.5
2018-Jun-08 18:30N 29°46' W 093°55'4 8.1
2018-Jun-08 18:00N 29°43' W 093°51'5 9.5
2018-Jun-08 17:30N 29°38' W 093°49'611.2
2018-Jun-08 17:00N 29°34' W 093°46'611.6
2018-Jun-08 16:30N 29°30' W 093°41'5 9.1
2018-Jun-08 16:00N 29°25' W 093°40'2 4.6
2018-Jun-08 15:30N 29°23' W 093°38'1 2.5
2018-Jun-08 14:59N 29°24' W 093°37'0 0.1
2018-Jun-08 14:23N 29°24' W 093°37'0 0.0
2018-Jun-08 13:47N 29°24' W 093°37'0 0.0
2018-Jun-08 13:29N 29°24' W 093°37'0 0.0
2018-Jun-08 12:59N 29°24' W 093°37'0 0.0
2018-Jun-08 12:29N 29°24' W 093°37'0 0.0
2018-Jun-08 11:59N 29°24' W 093°37'0 0.0
2018-Jun-08 11:23N 29°24' W 093°37'0 0.0
2018-Jun-08 10:50N 29°24' W 093°37'0 0.0
2018-Jun-08 10:29N 29°24' W 093°37'0 0.0
2018-Jun-08 09:53N 29°24' W 093°37'0 0.0
2018-Jun-08 09:26N 29°24' W 093°37'0 0.0
2018-Jun-08 08:59N 29°24' W 093°37'0 0.0
2018-Jun-08 08:29N 29°24' W 093°37'0 0.0
2018-Jun-08 07:56N 29°24' W 093°37'0 0.0
2018-Jun-08 07:29N 29°24' W 093°37'0 0.0
2018-Jun-08 06:59N 29°24' W 093°37'0 0.0
2018-Jun-08 06:29N 29°24' W 093°37'0 0.0
2018-Jun-08 05:59N 29°24' W 093°37'0 0.0
2018-Jun-08 05:26N 29°24' W 093°37'0 0.0
2018-Jun-08 04:50N 29°24' W 093°37'0 0.1
2018-Jun-08 04:29N 29°24' W 093°37'0 0.0
2018-Jun-08 03:59N 29°24' W 093°37'0 0.0
2018-Jun-08 03:29N 29°24' W 093°37'0 0.0
2018-Jun-08 02:56N 29°24' W 093°37'0 0.0
2018-Jun-08 02:29N 29°24' W 093°37'0 0.0
2018-Jun-08 01:59N 29°24' W 093°37'0 0.0
2018-Jun-08 01:29N 29°24' W 093°37'0 0.0
2018-Jun-08 00:56N 29°24' W 093°37'0 0.0
2018-Jun-08 00:26N 29°24' W 093°37'0 0.1
2018-Jun-07 23:53N 29°24' W 093°37'0 0.0
2018-Jun-07 23:29N 29°24' W 093°37'0 0.1
2018-Jun-07 22:47N 29°24' W 093°37'0 0.2
2018-Jun-07 22:30N 29°24' W 093°37'1 2.7
2018-Jun-07 22:00N 29°23' W 093°38'3 5.4
2018-Jun-07 21:28N 29°21' W 093°40'510.6
2018-Jun-07 21:00N 29°16' W 093°39'912.1
2018-Jun-07 20:15N 29°07' W 093°40'412.7
2018-Jun-07 19:56N 29°03' W 093°40'612.8
2018-Jun-07 19:30N 28°57' W 093°40'27 8.3
2018-Jun-07 16:14N 28°43' W 094°06'1 1.4
2018-Jun-07 15:16N 28°43' W 094°05'0 0.1
2018-Jun-07 11:33N 28°43' W 094°04'0 0.0
2018-Jun-07 11:18N 28°43' W 094°04'0 0.0
2018-Jun-07 10:51N 28°43' W 094°04'0 0.0
2018-Jun-07 10:28N 28°43' W 094°04'0 0.0
2018-Jun-07 10:00N 28°43' W 094°04'0 0.0
2018-Jun-07 09:30N 28°43' W 094°04'0 0.0
2018-Jun-06 22:10N 28°43' W 094°04'0 0.3
2018-Jun-06 21:55N 28°43' W 094°04'0 0.6
2018-Jun-06 21:28N 28°42' W 094°04'4 4.9
2018-Jun-06 20:38N 28°39' W 094°02'5 5.8
2018-Jun-06 19:49N 28°35' W 093°59'6 2.5
2018-Jun-06 17:36N 28°38' W 093°53'0 0.0
2018-Jun-06 12:40N 28°38' W 093°53'0 0.0
2018-Jun-06 12:13N 28°38' W 093°53'0 0.0
2018-Jun-06 11:58N 28°38' W 093°53'0 0.1
2018-Jun-06 08:55N 28°38' W 093°54'0 0.0
2018-Jun-06 07:46N 28°38' W 093°54'0 0.0
2018-Jun-06 07:19N 28°38' W 093°54'0 0.2
2018-Jun-06 05:10N 28°38' W 093°53'1 4.3
2018-Jun-06 05:00N 28°37' W 093°53'3 6.0
2018-Jun-06 04:30N 28°39' W 093°51'12 8.7
2018-Jun-06 03:10N 28°49' W 093°43'212.9
2018-Jun-06 02:59N 28°50' W 093°41'4011.7
2018-Jun-05 23:36N 29°21' W 093°13'113.2
2018-Jun-05 23:30N 29°22' W 093°13'712.8
2018-Jun-05 22:56N 29°30' W 093°13'4 9.0
2018-Jun-05 22:30N 29°33' W 093°15'713.0
2018-Jun-05 22:00N 29°39' W 093°19'612.7
2018-Jun-05 21:30N 29°45' W 093°20'510.5
2018-Jun-05 21:00N 29°50' W 093°21'4 8.8
2018-Jun-05 20:30N 29°54' W 093°21'5 8.9
2018-Jun-05 20:00N 29°59' W 093°20'3 6.1
2018-Jun-05 19:30N 30°02' W 093°20'4 7.4
2018-Jun-05 19:00N 30°06' W 093°19'3 6.8
2018-Jun-05 18:30N 30°09' W 093°20'2 4.4
2018-Jun-05 18:00N 30°11' W 093°19'0 0.6
2018-Jun-05 17:29N 30°11' W 093°18'0 0.0
2018-Jun-05 16:59N 30°11' W 093°18'0 0.0
2018-Jun-05 16:29N 30°11' W 093°18'0 0.0
2018-Jun-05 15:59N 30°11' W 093°18'0 0.0
2018-Jun-05 15:29N 30°11' W 093°18'0 0.0
2018-Jun-05 14:59N 30°11' W 093°18'0 0.0
2018-Jun-05 14:29N 30°11' W 093°18'0 0.0
2018-Jun-05 13:56N 30°11' W 093°18'0 0.0
2018-Jun-05 13:29N 30°11' W 093°18'0 0.0
2018-Jun-05 12:59N 30°11' W 093°18'0 0.0
2018-Jun-05 12:29N 30°11' W 093°18'0 0.0
2018-Jun-05 11:56N 30°11' W 093°18'0 0.0
2018-Jun-05 11:29N 30°11' W 093°18'0 0.0
2018-Jun-05 10:59N 30°11' W 093°18'0 0.0
2018-Jun-05 10:29N 30°11' W 093°18'0 0.0
2018-Jun-05 09:59N 30°11' W 093°18'0 0.0
2018-Jun-05 09:29N 30°11' W 093°18'0 0.0
2018-Jun-05 08:59N 30°11' W 093°18'0 0.0
2018-Jun-05 08:29N 30°11' W 093°18'0 0.0
2018-Jun-05 07:59N 30°11' W 093°18'0 0.0
2018-Jun-05 07:29N 30°11' W 093°18'0 0.0
2018-Jun-05 06:59N 30°11' W 093°18'0 0.0
2018-Jun-05 06:23N 30°11' W 093°18'0 0.0
2018-Jun-05 05:59N 30°11' W 093°18'0 0.0
2018-Jun-05 05:29N 30°11' W 093°18'0 0.0
2018-Jun-05 04:59N 30°11' W 093°18'0 0.0
2018-Jun-05 04:29N 30°11' W 093°18'0 0.0
2018-Jun-05 03:59N 30°11' W 093°18'0 0.0
2018-Jun-05 03:29N 30°11' W 093°18'0 0.0
2018-Jun-05 02:56N 30°11' W 093°18'0 0.0
2018-Jun-05 02:29N 30°11' W 093°18'0 0.0
2018-Jun-05 01:59N 30°11' W 093°18'0 0.0
2018-Jun-05 01:29N 30°11' W 093°18'0 0.0
2018-Jun-05 00:59N 30°11' W 093°18'  

Dump ship's entire track history